createdAt,value
2022-07-30T00:00:36.476Z,95.10
2022-07-30T00:03:04.805Z,95.00
2022-07-30T00:05:34.712Z,94.90
2022-07-30T00:08:02.893Z,94.80
2022-07-30T00:10:31.103Z,94.70
2022-07-30T00:12:59.169Z,94.60
2022-07-30T00:15:27.414Z,94.50
2022-07-30T00:17:56.039Z,94.50
2022-07-30T00:20:27.953Z,94.60
2022-07-30T00:22:58.610Z,94.70
2022-07-30T00:25:26.733Z,94.60
2022-07-30T00:27:54.868Z,94.40
2022-07-30T00:30:24.318Z,94.20
2022-07-30T00:32:52.752Z,94.30
2022-07-30T00:35:20.915Z,94.20
2022-07-30T00:37:49.042Z,94.30
2022-07-30T00:40:18.686Z,94.30
2022-07-30T00:42:48.084Z,94.30
2022-07-30T00:45:17.475Z,94.30
2022-07-30T00:47:46.156Z,94.20
2022-07-30T00:50:15.962Z,94.00
2022-07-30T00:52:44.869Z,93.90
2022-07-30T00:55:15.327Z,93.80
2022-07-30T00:57:45.367Z,93.70
2022-07-30T01:00:16.911Z,93.70
2022-07-30T01:02:45.103Z,93.70
2022-07-30T01:05:13.893Z,93.80
2022-07-30T01:07:42.065Z,93.90
2022-07-30T01:10:13.785Z,93.90
2022-07-30T01:12:43.200Z,94.00
2022-07-30T01:15:13.087Z,94.10
2022-07-30T01:17:41.591Z,94.10
2022-07-30T01:20:14.216Z,94.10
2022-07-30T01:22:51.552Z,94.00
2022-07-30T01:25:28.888Z,94.00
2022-07-30T01:28:02.805Z,94.00
2022-07-30T01:30:35.019Z,94.00
2022-07-30T01:33:05.517Z,93.90
2022-07-30T01:35:35.463Z,93.90
2022-07-30T01:38:06.264Z,93.70
2022-07-30T01:40:36.587Z,93.50
2022-07-30T01:43:08.895Z,93.50
2022-07-30T01:45:44.067Z,93.40
2022-07-30T01:48:15.819Z,93.30
2022-07-30T01:50:46.578Z,93.20
2022-07-30T01:53:18.063Z,93.10
2022-07-30T01:55:47.616Z,93.30
2022-07-30T01:58:22.135Z,93.40
2022-07-30T02:00:58.240Z,93.40
2022-07-30T02:03:29.549Z,93.50
2022-07-30T02:06:02.366Z,93.40
2022-07-30T02:08:40.026Z,93.50
2022-07-30T02:11:10.381Z,93.60
2022-07-30T02:13:45.988Z,93.50
2022-07-30T02:16:18.452Z,93.50
2022-07-30T02:18:56.847Z,93.60
2022-07-30T02:21:36.608Z,93.60
2022-07-30T02:24:10.038Z,93.60
2022-07-30T02:26:40.289Z,93.70
2022-07-30T02:29:11.850Z,93.60
2022-07-30T02:31:42.508Z,93.60
2022-07-30T02:34:14.071Z,93.60
2022-07-30T02:36:43.909Z,93.60
2022-07-30T02:39:14.858Z,93.50
2022-07-30T02:41:47.926Z,93.50
2022-07-30T02:44:21.364Z,93.50
2022-07-30T02:46:51.016Z,93.50
2022-07-30T02:49:32.522Z,93.50
2022-07-30T02:52:02.568Z,93.50
2022-07-30T02:54:32.723Z,93.50
2022-07-30T02:57:04.229Z,93.50
2022-07-30T02:59:37.210Z,93.50
2022-07-30T03:02:07.274Z,93.50
2022-07-30T03:04:37.537Z,93.50
2022-07-30T03:07:08.613Z,93.40
2022-07-30T03:09:52.260Z,93.40
2022-07-30T03:12:22.700Z,93.40
2022-07-30T03:14:54.311Z,93.30
2022-07-30T03:17:26.738Z,93.30
2022-07-30T03:19:56.841Z,93.40
2022-07-30T03:22:32.625Z,93.40
2022-07-30T03:25:03.548Z,93.50
2022-07-30T03:27:32.735Z,93.60
2022-07-30T03:30:03.436Z,93.50
2022-07-30T03:32:32.587Z,93.60
2022-07-30T03:35:05.939Z,93.50
2022-07-30T03:37:36.929Z,93.60
2022-07-30T03:40:06.853Z,93.60
2022-07-30T03:42:35.897Z,93.60
2022-07-30T03:45:09.779Z,93.50
2022-07-30T03:47:40.356Z,93.50
2022-07-30T03:50:10.323Z,93.50
2022-07-30T03:52:41.005Z,93.50
2022-07-30T03:55:13.137Z,93.50
2022-07-30T03:57:47.172Z,93.60
2022-07-30T04:00:18.189Z,93.50
2022-07-30T04:02:51.020Z,93.50
2022-07-30T04:05:40.992Z,93.60
2022-07-30T04:08:09.761Z,93.60
2022-07-30T04:10:39.436Z,93.70
2022-07-30T04:13:29.666Z,93.60
2022-07-30T04:16:40.109Z,93.60
2022-07-30T04:18:56.299Z,93.60
2022-07-30T04:21:26.859Z,93.60
2022-07-30T04:24:04.574Z,93.70
2022-07-30T04:26:36.382Z,93.70
2022-07-30T04:29:08.482Z,93.70
2022-07-30T04:31:40.949Z,93.70
2022-07-30T04:34:35.585Z,93.70
2022-07-30T04:37:06.416Z,93.70
2022-07-30T04:39:34.574Z,93.70
2022-07-30T04:42:02.652Z,93.70
2022-07-30T04:44:36.525Z,93.60
2022-07-30T04:47:26.570Z,93.60
2022-07-30T04:50:20.691Z,93.60
2022-07-30T04:52:49.485Z,93.90
2022-07-30T04:55:24.943Z,93.60
2022-07-30T04:57:54.026Z,93.70
2022-07-30T05:00:22.933Z,93.60
2022-07-30T05:02:54.460Z,93.70
2022-07-30T05:05:26.081Z,93.60
2022-07-30T05:07:56.372Z,93.70
2022-07-30T05:10:24.658Z,93.80
2022-07-30T05:12:53.125Z,93.80
2022-07-30T05:15:23.794Z,93.80
2022-07-30T05:18:08.681Z,93.90
2022-07-30T05:20:40.982Z,93.90
2022-07-30T05:23:15.563Z,93.90
2022-07-30T05:25:49.837Z,93.90
2022-07-30T05:28:29.387Z,94.00
2022-07-30T05:31:00.662Z,94.00
2022-07-30T05:33:40.849Z,94.10
2022-07-30T05:36:11.845Z,94.20
2022-07-30T05:38:41.340Z,94.20
2022-07-30T05:41:32.960Z,94.40
2022-07-30T05:44:27.652Z,94.40
2022-07-30T05:46:56.560Z,94.40
2022-07-30T05:49:26.064Z,94.50
2022-07-30T05:51:57.761Z,94.50
2022-07-30T05:54:27.444Z,94.50
2022-07-30T05:57:14.086Z,94.60
2022-07-30T05:59:42.190Z,94.70
2022-07-30T06:02:11.388Z,94.80
2022-07-30T06:04:59.475Z,95.00
2022-07-30T06:07:28.248Z,95.00
2022-07-30T06:10:00.340Z,95.00
2022-07-30T06:12:30.086Z,95.10
2022-07-30T06:14:59.367Z,95.20
2022-07-30T06:17:31.788Z,95.20
2022-07-30T06:20:18.659Z,95.40
2022-07-30T06:23:05.200Z,95.40
2022-07-30T06:25:48.547Z,95.50
2022-07-30T06:28:39.042Z,95.50
2022-07-30T06:31:06.296Z,95.50
2022-07-30T06:33:34.565Z,95.60
2022-07-30T06:36:04.365Z,95.50
2022-07-30T06:38:40.861Z,95.50
2022-07-30T06:41:15.687Z,95.50
2022-07-30T06:43:52.665Z,95.40
2022-07-30T06:46:52.565Z,95.40
2022-07-30T06:49:24.533Z,95.20
2022-07-30T06:51:54.436Z,94.90
2022-07-30T06:54:22.620Z,94.60
2022-07-30T06:57:02.678Z,94.50
2022-07-30T06:59:31.361Z,94.50
2022-07-30T07:02:20.232Z,94.50
2022-07-30T07:05:14.556Z,94.50
2022-07-30T07:07:58.666Z,94.40
2022-07-30T07:10:32.081Z,94.00
2022-07-30T07:13:20.480Z,93.10
2022-07-30T07:15:49.351Z,93.20
2022-07-30T07:18:21.479Z,93.00
2022-07-30T07:20:56.764Z,93.00
2022-07-30T07:23:26.571Z,92.90
2022-07-30T07:26:12.074Z,92.90
2022-07-30T07:28:41.095Z,92.80
2022-07-30T07:31:10.302Z,92.40
2022-07-30T07:33:39.386Z,92.10
2022-07-30T07:36:08.421Z,92.10
2022-07-30T07:38:37.885Z,92.10
2022-07-30T07:41:06.478Z,92.00
2022-07-30T07:43:35.537Z,91.80
2022-07-30T07:46:04.256Z,91.90
2022-07-30T07:48:34.853Z,92.10
2022-07-30T07:51:34.757Z,91.60
2022-07-30T07:54:22.252Z,91.60
2022-07-30T07:56:57.275Z,91.60
2022-07-30T07:59:40.006Z,91.70
2022-07-30T08:02:15.262Z,91.70
2022-07-30T08:05:02.195Z,91.70
2022-07-30T08:07:43.185Z,91.60
2022-07-30T08:10:31.628Z,91.70
2022-07-30T08:13:52.332Z,91.60
2022-07-30T08:16:50.540Z,91.60
2022-07-30T08:19:26.594Z,91.30
2022-07-30T08:22:17.789Z,91.40
2022-07-30T08:24:46.020Z,91.50
2022-07-30T08:27:15.529Z,91.50
2022-07-30T08:29:43.963Z,91.60
2022-07-30T08:32:12.246Z,91.60
2022-07-30T08:34:41.996Z,91.70
2022-07-30T08:37:10.254Z,91.70
2022-07-30T08:39:42.574Z,91.80
2022-07-30T08:42:10.890Z,91.60
2022-07-30T08:44:42.242Z,91.70
2022-07-30T08:47:12.588Z,91.60
2022-07-30T08:50:04.352Z,91.70
2022-07-30T08:52:38.049Z,91.70
2022-07-30T08:55:08.763Z,91.60
2022-07-30T08:57:37.255Z,91.50
2022-07-30T09:00:09.205Z,91.50
2022-07-30T09:02:37.497Z,91.50
2022-07-30T09:05:07.565Z,91.40
2022-07-30T09:07:36.957Z,91.50
2022-07-30T09:10:07.072Z,91.40
2022-07-30T09:12:39.301Z,91.70
2022-07-30T09:15:12.829Z,91.40
2022-07-30T09:17:52.817Z,91.50
2022-07-30T09:20:24.689Z,91.50
2022-07-30T09:22:55.524Z,91.60
2022-07-30T09:25:51.035Z,91.50
2022-07-30T09:28:37.768Z,91.50
2022-07-30T09:31:16.631Z,91.40
2022-07-30T09:34:27.739Z,91.30
2022-07-30T09:37:06.556Z,91.50
2022-07-30T09:39:58.900Z,91.40
2022-07-30T09:42:48.077Z,91.50
2022-07-30T09:45:17.004Z,91.50
2022-07-30T09:47:50.384Z,91.50
2022-07-30T09:50:30.080Z,91.50
2022-07-30T09:55:58.122Z,91.60
2022-07-30T09:58:39.128Z,91.60
2022-07-30T10:01:09.872Z,91.40
2022-07-30T10:03:58.506Z,91.10
2022-07-30T10:06:45.309Z,91.10
2022-07-30T10:09:29.238Z,91.00
2022-07-30T10:11:59.826Z,90.80
2022-07-30T10:14:34.585Z,90.60
2022-07-30T10:17:12.811Z,90.30
2022-07-30T10:19:44.329Z,90.00
2022-07-30T10:22:35.640Z,90.20
2022-07-30T10:25:27.913Z,90.00
2022-07-30T10:28:30.932Z,89.60
2022-07-30T10:31:02.905Z,89.00
2022-07-30T10:33:51.447Z,90.10
2022-07-30T10:36:23.863Z,90.20
2022-07-30T10:38:54.207Z,90.30
2022-07-30T10:41:42.741Z,90.20
2022-07-30T10:44:40.785Z,90.30
2022-07-30T10:47:10.843Z,90.40
2022-07-30T10:49:41.530Z,90.30
2022-07-30T10:52:12.825Z,90.30
2022-07-30T10:54:44.428Z,90.40
2022-07-30T10:57:22.966Z,90.40
2022-07-30T11:00:15.520Z,89.20
2022-07-30T11:03:16.018Z,90.00
2022-07-30T11:05:45.980Z,89.20
2022-07-30T11:08:42.910Z,89.10
2022-07-30T11:11:59.177Z,89.00
2022-07-30T11:15:06.211Z,87.80
2022-07-30T11:18:01.877Z,88.40
2022-07-30T11:20:30.372Z,88.10
2022-07-30T11:23:35.445Z,87.80
2022-07-30T11:26:05.526Z,87.30
2022-07-30T11:28:37.622Z,86.20
2022-07-30T11:31:30.716Z,85.90
2022-07-30T11:34:28.223Z,85.40
2022-07-30T11:37:18.684Z,86.20
2022-07-30T11:40:10.873Z,85.30
2022-07-30T11:42:42.793Z,84.90
2022-07-30T11:45:26.923Z,85.50
2022-07-30T11:47:57.703Z,86.10
2022-07-30T11:50:27.889Z,86.50
2022-07-30T11:52:58.548Z,86.50
2022-07-30T11:55:28.635Z,86.90
2022-07-30T11:57:59.439Z,87.40
2022-07-30T12:00:34.232Z,87.30
2022-07-30T12:03:07.850Z,87.20
2022-07-30T12:05:36.449Z,87.00
2022-07-30T12:08:05.382Z,85.70
2022-07-30T12:10:36.024Z,86.20
2022-07-30T12:13:13.677Z,86.10
2022-07-30T12:15:43.935Z,86.20
2022-07-30T12:18:28.845Z,86.10
2022-07-30T12:21:02.190Z,86.10
2022-07-30T12:23:31.451Z,86.00
2022-07-30T12:26:00.105Z,86.10
2022-07-30T12:28:32.936Z,85.90
2022-07-30T12:31:02.820Z,86.00
2022-07-30T12:33:31.789Z,86.10
2022-07-30T12:36:01.694Z,84.70
2022-07-30T12:38:30.415Z,85.00
2022-07-30T12:41:01.062Z,85.20
2022-07-30T12:43:48.043Z,85.10
2022-07-30T12:46:18.010Z,84.90
2022-07-30T12:49:02.825Z,84.60
2022-07-30T12:51:57.608Z,83.60
2022-07-30T12:54:28.999Z,84.20
2022-07-30T12:56:59.715Z,84.20
2022-07-30T12:59:30.433Z,84.10
2022-07-30T13:02:00.499Z,83.80
2022-07-30T13:04:29.230Z,83.90
2022-07-30T13:07:11.686Z,83.60
2022-07-30T13:09:40.952Z,83.80
2022-07-30T13:12:12.809Z,84.20
2022-07-30T13:14:42.287Z,84.40
2022-07-30T13:17:10.900Z,84.20
2022-07-30T13:19:40.242Z,84.00
2022-07-30T13:22:08.440Z,83.90
2022-07-30T13:24:36.492Z,82.90
2022-07-30T13:27:04.986Z,82.90
2022-07-30T13:29:33.316Z,83.70
2022-07-30T13:32:02.790Z,84.30
2022-07-30T13:34:30.875Z,84.50
2022-07-30T13:36:59.215Z,84.70
2022-07-30T13:39:28.115Z,84.90
2022-07-30T13:41:56.225Z,85.00
2022-07-30T13:44:24.381Z,83.70
2022-07-30T13:46:52.629Z,83.60
2022-07-30T13:49:22.138Z,84.20
2022-07-30T13:51:50.886Z,84.10
2022-07-30T13:54:19.025Z,83.80
2022-07-30T13:56:47.466Z,83.90
2022-07-30T13:59:15.651Z,83.90
2022-07-30T14:01:43.873Z,84.30
2022-07-30T14:04:12.122Z,84.50
2022-07-30T14:06:41.655Z,84.70
2022-07-30T14:09:09.872Z,84.60
2022-07-30T14:11:38.067Z,84.70
2022-07-30T14:14:06.270Z,85.20
2022-07-30T14:16:49.620Z,85.30
2022-07-30T14:19:23.318Z,85.50
2022-07-30T14:21:54.149Z,85.60
2022-07-30T14:24:22.907Z,85.60
2022-07-30T14:26:57.329Z,84.60
2022-07-30T14:29:26.498Z,84.30
2022-07-30T14:31:54.796Z,84.20
2022-07-30T14:34:22.971Z,85.40
2022-07-30T14:36:51.143Z,84.80
2022-07-30T14:39:21.037Z,85.00
2022-07-30T14:41:50.752Z,85.20
2022-07-30T14:44:23.890Z,85.40
2022-07-30T14:46:52.980Z,85.30
2022-07-30T14:49:21.708Z,85.50
2022-07-30T14:51:51.044Z,84.90
2022-07-30T14:54:20.617Z,84.30
2022-07-30T14:56:49.312Z,84.40
2022-07-30T14:59:17.824Z,85.00
2022-07-30T15:01:47.930Z,84.90
2022-07-30T15:04:16.281Z,84.40
2022-07-30T15:06:44.321Z,84.60
2022-07-30T15:09:12.494Z,84.60
2022-07-30T15:12:07.929Z,84.40
2022-07-30T15:14:30.300Z,83.80
2022-07-30T15:17:03.883Z,83.90
2022-07-30T15:19:32.929Z,84.30
2022-07-30T15:22:02.655Z,84.50
2022-07-30T15:24:31.658Z,84.80
2022-07-30T15:27:01.386Z,84.90
2022-07-30T15:29:30.242Z,85.70
2022-07-30T15:32:00.096Z,85.20
2022-07-30T15:34:33.866Z,85.10
2022-07-30T15:37:02.547Z,85.30
2022-07-30T15:39:32.882Z,85.20
2022-07-30T15:42:03.135Z,84.50
2022-07-30T15:44:31.593Z,83.90
2022-07-30T15:46:59.953Z,83.80
2022-07-30T15:49:28.290Z,84.40
2022-07-30T15:51:57.374Z,84.80
2022-07-30T15:54:25.655Z,84.80
2022-07-30T15:57:01.285Z,84.90
2022-07-30T15:59:32.152Z,85.00
2022-07-30T16:02:00.581Z,85.20
2022-07-30T16:04:31.275Z,85.30
2022-07-30T16:07:00.220Z,85.30
2022-07-30T16:09:28.549Z,85.40
2022-07-30T16:11:56.772Z,85.30
2022-07-30T16:14:27.108Z,85.50
2022-07-30T16:16:56.850Z,85.10
2022-07-30T16:19:24.953Z,85.40
2022-07-30T16:21:53.050Z,85.40
2022-07-30T16:24:21.352Z,85.30
2022-07-30T16:26:50.559Z,85.40
2022-07-30T16:29:19.235Z,85.60
2022-07-30T16:31:47.597Z,85.70
2022-07-30T16:34:17.540Z,85.50
2022-07-30T16:36:54.606Z,85.60
2022-07-30T16:39:23.129Z,85.80
2022-07-30T16:41:51.294Z,85.30
2022-07-30T16:44:19.360Z,85.50
2022-07-30T16:46:48.382Z,85.40
2022-07-30T16:49:17.983Z,85.60
2022-07-30T16:51:46.383Z,85.50
2022-07-30T16:54:14.480Z,85.60
2022-07-30T16:56:42.704Z,85.60
2022-07-30T16:59:13.876Z,85.60
2022-07-30T17:01:42.174Z,85.60
2022-07-30T17:04:10.270Z,85.50
2022-07-30T17:06:41.031Z,85.60
2022-07-30T17:09:09.185Z,85.70
2022-07-30T17:11:47.224Z,85.50
2022-07-30T17:14:22.093Z,85.50
2022-07-30T17:16:50.265Z,85.50
2022-07-30T17:19:18.504Z,85.60
2022-07-30T17:21:47.933Z,85.50
2022-07-30T17:24:16.409Z,85.60
2022-07-30T17:26:45.249Z,85.60
2022-07-30T17:29:15.405Z,85.90
2022-07-30T17:31:44.688Z,85.60
2022-07-30T17:34:14.563Z,85.70
2022-07-30T17:36:44.306Z,85.70
2022-07-30T17:40:24.792Z,85.70
2022-07-30T17:42:11.876Z,85.80
2022-07-30T17:44:41.891Z,85.90
2022-07-30T17:47:15.069Z,85.80
2022-07-30T17:49:44.847Z,85.60
2022-07-30T17:52:13.142Z,85.60
2022-07-30T17:54:42.588Z,85.90
2022-07-30T17:57:10.709Z,85.90
2022-07-30T17:59:38.802Z,85.70
2022-07-30T18:02:07.182Z,84.60
2022-07-30T18:04:35.855Z,85.20
2022-07-30T18:07:04.654Z,85.50
2022-07-30T18:09:39.570Z,85.30
2022-07-30T18:12:09.967Z,85.50
2022-07-30T18:14:38.587Z,85.30
2022-07-30T18:17:09.040Z,85.20
2022-07-30T18:19:40.877Z,85.20
2022-07-30T18:22:09.356Z,85.40
2022-07-30T18:24:40.373Z,85.20
2022-07-30T18:27:13.553Z,85.60
2022-07-30T18:29:41.778Z,84.30
2022-07-30T18:32:10.323Z,84.80
2022-07-30T18:34:38.447Z,84.90
2022-07-30T18:37:06.575Z,84.00
2022-07-30T18:39:34.649Z,84.00
2022-07-30T18:42:03.583Z,82.80
2022-07-30T18:44:33.322Z,82.60
2022-07-30T18:47:01.723Z,82.90
2022-07-30T18:49:38.098Z,82.70
2022-07-30T18:52:07.914Z,82.50
2022-07-30T18:54:37.087Z,82.20
2022-07-30T18:57:05.895Z,81.60
2022-07-30T18:59:35.536Z,81.30
2022-07-30T19:02:04.727Z,81.30
2022-07-30T19:04:33.398Z,80.80
2022-07-30T19:07:01.505Z,80.60
2022-07-30T19:09:29.790Z,80.40
2022-07-30T19:11:57.917Z,80.40
2022-07-30T19:14:26.085Z,80.00
2022-07-30T19:16:59.203Z,79.40
2022-07-30T19:19:28.371Z,79.20
2022-07-30T19:21:56.932Z,79.00
2022-07-30T19:24:27.811Z,78.70
2022-07-30T19:26:56.900Z,78.70
2022-07-30T19:29:25.211Z,77.90
2022-07-30T19:31:53.354Z,77.00
2022-07-30T19:34:22.883Z,76.80
2022-07-30T19:36:51.030Z,75.70
2022-07-30T19:39:21.283Z,75.40
2022-07-30T19:41:50.773Z,75.00
2022-07-30T19:44:19.554Z,74.70
2022-07-30T19:46:48.617Z,75.30
2022-07-30T19:49:17.355Z,74.80
2022-07-30T19:52:09.767Z,74.40
2022-07-30T19:54:37.322Z,74.30
2022-07-30T19:57:05.742Z,74.40
2022-07-30T19:59:46.215Z,74.40
2022-07-30T20:02:22.737Z,74.60
2022-07-30T20:04:50.991Z,74.40
2022-07-30T20:07:20.883Z,74.80
2022-07-30T20:09:49.229Z,74.40
2022-07-30T20:12:17.388Z,74.30
2022-07-30T20:14:45.656Z,74.40
2022-07-30T20:17:14.597Z,74.20
2022-07-30T20:19:47.810Z,74.40
2022-07-30T20:22:17.281Z,74.40
2022-07-30T20:24:48.450Z,74.40
2022-07-30T20:27:36.598Z,74.10
2022-07-30T20:30:06.171Z,74.40
2022-07-30T20:32:35.401Z,74.00
2022-07-30T20:35:04.769Z,74.30
2022-07-30T20:37:33.412Z,74.10
2022-07-30T20:40:23.074Z,74.20
2022-07-30T20:42:51.395Z,74.10
2022-07-30T20:45:23.555Z,74.00
2022-07-30T20:47:56.445Z,73.90
2022-07-30T20:50:30.446Z,73.70
2022-07-30T20:53:00.349Z,73.70
2022-07-30T20:55:29.809Z,73.80
2022-07-30T20:58:06.967Z,74.00
2022-07-30T21:00:42.726Z,74.30
2022-07-30T21:03:18.520Z,74.30
2022-07-30T21:05:51.157Z,74.30
2022-07-30T21:08:21.359Z,74.60
2022-07-30T21:10:55.451Z,74.90
2022-07-30T21:13:26.132Z,74.70
2022-07-30T21:16:01.592Z,74.60
2022-07-30T21:18:29.940Z,74.40
2022-07-30T21:20:58.999Z,74.60
2022-07-30T21:23:29.010Z,75.20
2022-07-30T21:26:00.593Z,75.50
2022-07-30T21:28:35.587Z,75.40
2022-07-30T21:31:06.930Z,75.80
2022-07-30T21:33:36.506Z,76.10
2022-07-30T21:36:10.188Z,75.90
2022-07-30T21:38:42.291Z,75.70
2022-07-30T21:41:13.892Z,75.50
2022-07-30T21:43:44.201Z,75.40
2022-07-30T21:46:12.651Z,75.40
2022-07-30T21:48:41.219Z,75.20
2022-07-30T21:51:10.391Z,75.00
2022-07-30T21:53:46.144Z,74.60
2022-07-30T21:56:16.897Z,74.20
2022-07-30T21:58:46.135Z,74.20
2022-07-30T22:01:21.736Z,74.40
2022-07-30T22:04:01.621Z,74.40
2022-07-30T22:06:35.292Z,74.40
2022-07-30T22:09:08.527Z,74.00
2022-07-30T22:11:48.143Z,74.20
2022-07-30T22:14:16.257Z,74.20
2022-07-30T22:16:46.517Z,74.40
2022-07-30T22:19:15.378Z,74.20
2022-07-30T22:21:46.658Z,74.50
2022-07-30T22:24:29.489Z,74.40
2022-07-30T22:27:10.909Z,74.70
2022-07-30T22:29:43.487Z,74.20
2022-07-30T22:32:12.213Z,74.10
2022-07-30T22:34:40.514Z,74.00
2022-07-30T22:37:09.313Z,73.90
2022-07-30T22:39:50.656Z,73.90
2022-07-30T22:42:24.452Z,73.80
2022-07-30T22:44:54.867Z,73.80
2022-07-30T22:47:50.896Z,73.90
2022-07-30T22:50:21.306Z,73.90
2022-07-30T22:53:00.115Z,73.90
2022-07-30T22:55:42.834Z,74.00
2022-07-30T22:58:12.990Z,74.00
2022-07-30T23:00:41.141Z,74.00
2022-07-30T23:03:09.616Z,74.10
2022-07-30T23:05:37.760Z,74.30
2022-07-30T23:08:08.133Z,74.30
2022-07-30T23:10:36.587Z,74.40
2022-07-30T23:13:05.066Z,74.30
2022-07-30T23:15:34.991Z,74.40
2022-07-30T23:18:04.272Z,74.50
2022-07-30T23:20:32.454Z,74.70
2022-07-30T23:23:01.492Z,74.80
2022-07-30T23:25:38.597Z,74.80
2022-07-30T23:28:07.380Z,74.80
2022-07-30T23:30:36.863Z,75.00
2022-07-30T23:33:05.578Z,74.80
2022-07-30T23:35:34.639Z,74.90
2022-07-30T23:38:02.833Z,74.80
2022-07-30T23:40:31.125Z,74.80
2022-07-30T23:42:59.226Z,75.00
2022-07-30T23:45:27.511Z,75.00
2022-07-30T23:48:02.666Z,74.90
2022-07-30T23:50:32.437Z,74.90
2022-07-30T23:53:00.839Z,75.10
2022-07-30T23:55:29.284Z,75.00
2022-07-30T23:57:57.900Z,74.80
